createdAt,value
2019-04-29T00:03:07.973Z,83.50
2019-04-29T00:09:16.006Z,84.40
2019-04-29T00:15:29.252Z,85.60
2019-04-29T00:21:31.729Z,85.90
2019-04-29T00:27:33.954Z,86.50
2019-04-29T00:33:38.596Z,86.30
2019-04-29T00:39:59.232Z,86.40
2019-04-29T00:46:01.539Z,86.40
2019-04-29T00:52:03.958Z,86.80
2019-04-29T00:58:06.199Z,87.90
2019-04-29T01:04:08.648Z,88.50
2019-04-29T01:10:11.104Z,88.50
2019-04-29T01:16:13.405Z,88.40
2019-04-29T01:22:15.940Z,88.40
2019-04-29T01:28:20.133Z,88.40
2019-04-29T01:34:26.473Z,87.90
2019-04-29T01:40:47.281Z,87.50
2019-04-29T01:46:49.552Z,88.40
2019-04-29T01:52:51.832Z,88.80
2019-04-29T01:58:54.163Z,89.10
2019-04-29T02:04:56.394Z,89.50
2019-04-29T02:10:58.558Z,89.10
2019-04-29T02:17:00.740Z,89.00
2019-04-29T02:23:05.197Z,89.30
2019-04-29T02:29:07.462Z,90.10
2019-04-29T02:35:12.130Z,89.80
2019-04-29T02:41:19.226Z,89.50
2019-04-29T02:47:21.389Z,89.60
2019-04-29T02:53:23.676Z,89.70
2019-04-29T02:59:36.800Z,89.80
2019-04-29T03:05:47.037Z,90.30
2019-04-29T03:11:49.481Z,90.20
2019-04-29T03:17:51.715Z,90.30
2019-04-29T03:23:53.966Z,90.30
2019-04-29T03:29:56.351Z,90.30
2019-04-29T03:36:00.745Z,90.10
2019-04-29T03:42:07.254Z,90.00
2019-04-29T03:48:08.299Z,90.10
2019-04-29T03:54:10.574Z,89.80
2019-04-29T04:00:15.070Z,89.60
2019-04-29T04:06:28.490Z,89.00
2019-04-29T04:12:30.737Z,90.00
2019-04-29T04:18:34.968Z,90.00
2019-04-29T04:24:37.227Z,90.40
2019-04-29T04:30:39.571Z,90.60
2019-04-29T04:36:41.890Z,91.30
2019-04-29T04:42:44.278Z,91.70
2019-04-29T04:48:46.506Z,91.80
2019-04-29T04:54:50.706Z,91.50
2019-04-29T05:00:53.102Z,91.20
2019-04-29T05:06:55.481Z,91.20
2019-04-29T05:12:57.981Z,90.70
2019-04-29T05:19:00.373Z,90.30
2019-04-29T05:25:03.302Z,90.10
2019-04-29T05:31:05.656Z,90.00
2019-04-29T05:37:09.974Z,88.70
2019-04-29T05:43:14.179Z,87.90
2019-04-29T05:49:21.467Z,86.90
2019-04-29T05:55:28.239Z,86.20
2019-04-29T06:01:31.239Z,85.50
2019-04-29T06:07:33.611Z,85.00
2019-04-29T06:13:36.027Z,84.40
2019-04-29T06:19:39.344Z,84.50
2019-04-29T06:25:43.675Z,84.50
2019-04-29T06:31:45.953Z,85.60
2019-04-29T06:37:49.545Z,86.50
2019-04-29T06:43:54.190Z,87.20
2019-04-29T06:49:56.038Z,87.30
2019-04-29T06:55:58.294Z,88.20
2019-04-29T07:02:00.759Z,87.60
2019-04-29T07:08:03.246Z,87.50
2019-04-29T07:14:05.624Z,88.10
2019-04-29T07:20:08.669Z,88.50
2019-04-29T07:26:11.048Z,88.80
2019-04-29T07:32:13.491Z,88.90
2019-04-29T07:38:15.866Z,87.60
2019-04-29T07:44:19.701Z,88.30
2019-04-29T07:50:22.496Z,88.60
2019-04-29T07:56:26.494Z,88.90
2019-04-29T08:02:28.788Z,88.00
2019-04-29T08:08:32.612Z,87.70
2019-04-29T08:14:36.736Z,87.80
2019-04-29T08:20:40.163Z,89.00
2019-04-29T08:26:47.252Z,88.50
2019-04-29T08:32:47.601Z,88.50
2019-04-29T08:38:50.053Z,88.80
2019-04-29T08:44:54.757Z,89.20
2019-04-29T08:50:58.360Z,88.80
2019-04-29T08:57:19.961Z,89.20
2019-04-29T09:03:23.454Z,89.80
2019-04-29T09:09:29.280Z,89.50
2019-04-29T09:15:30.719Z,88.70
2019-04-29T09:21:33.153Z,88.00
2019-04-29T09:27:40.709Z,88.20
2019-04-29T09:33:44.077Z,88.00
2019-04-29T09:39:47.045Z,87.40
2019-04-29T09:45:58.859Z,87.80
2019-04-29T09:52:01.772Z,86.80
2019-04-29T09:58:04.125Z,86.40
2019-04-29T10:04:08.711Z,85.90
2019-04-29T10:10:11.696Z,84.00
2019-04-29T10:16:15.842Z,83.20
2019-04-29T10:22:18.275Z,82.60
2019-04-29T10:28:21.040Z,82.00
2019-04-29T10:34:27.025Z,82.50
2019-04-29T10:40:36.149Z,81.70
2019-04-29T10:46:55.564Z,82.20
2019-04-29T10:52:57.866Z,82.20
2019-04-29T10:59:00.384Z,82.30
2019-04-29T11:05:22.732Z,81.50
2019-04-29T11:11:27.371Z,80.80
2019-04-29T11:17:29.847Z,82.70
2019-04-29T11:23:38.715Z,81.30
2019-04-29T11:29:41.214Z,81.30
2019-04-29T11:35:54.628Z,81.70
2019-04-29T11:41:59.784Z,81.10
2019-04-29T11:48:01.698Z,81.60
2019-04-29T11:54:10.884Z,81.70
2019-04-29T12:00:15.071Z,82.00
2019-04-29T12:06:20.869Z,82.50
2019-04-29T12:12:22.986Z,83.20
2019-04-29T12:18:27.215Z,83.30
2019-04-29T12:24:29.627Z,83.80
2019-04-29T12:30:34.985Z,83.90
2019-04-29T12:36:54.733Z,83.80
2019-04-29T12:43:01.019Z,83.40
2019-04-29T12:49:08.572Z,83.50
2019-04-29T12:55:20.071Z,82.70
2019-04-29T13:01:50.362Z,82.70
2019-04-29T13:07:39.269Z,83.20
2019-04-29T13:13:41.646Z,82.20
2019-04-29T13:20:00.996Z,82.10
2019-04-29T13:25:55.351Z,81.20
2019-04-29T13:31:54.929Z,81.20
2019-04-29T13:37:57.566Z,80.10
2019-04-29T13:44:05.351Z,79.90
2019-04-29T13:50:17.811Z,80.00
2019-04-29T13:56:32.272Z,78.40
2019-04-29T14:02:22.794Z,78.90
2019-04-29T14:08:28.769Z,79.20
2019-04-29T14:14:29.044Z,79.90
2019-04-29T14:20:31.683Z,79.40
2019-04-29T14:26:37.109Z,79.90
2019-04-29T14:32:42.376Z,79.50
2019-04-29T14:38:42.648Z,80.00
2019-04-29T14:44:53.015Z,80.80
2019-04-29T14:50:56.119Z,82.20
2019-04-29T14:56:59.469Z,84.80
2019-04-29T15:03:02.842Z,86.30
2019-04-29T15:09:16.804Z,87.10
2019-04-29T15:15:34.250Z,88.10
2019-04-29T15:21:45.632Z,89.50
2019-04-29T15:27:48.892Z,90.60
2019-04-29T15:33:51.494Z,90.50
2019-04-29T15:39:53.860Z,90.60
2019-04-29T15:45:56.431Z,90.60
2019-04-29T15:51:59.056Z,91.00
2019-04-29T15:58:01.408Z,91.10
2019-04-29T16:04:06.785Z,91.00
2019-04-29T16:10:28.109Z,91.10
2019-04-29T16:16:30.614Z,91.10
2019-04-29T16:22:38.567Z,90.40
2019-04-29T16:28:40.046Z,90.40
2019-04-29T16:34:45.129Z,90.30
2019-04-29T16:40:47.491Z,90.40
2019-04-29T16:46:52.193Z,90.50
2019-04-29T16:52:54.693Z,90.10
2019-04-29T16:58:56.953Z,89.50
2019-04-29T17:04:59.423Z,89.50
2019-04-29T17:11:17.554Z,90.20
2019-04-29T17:17:29.003Z,90.30
2019-04-29T17:23:39.160Z,90.20
2019-04-29T17:30:03.554Z,90.20
2019-04-29T17:36:25.769Z,90.30
2019-04-29T17:42:30.240Z,90.40
2019-04-29T17:48:41.604Z,90.70
2019-04-29T17:54:45.974Z,90.80
2019-04-29T18:00:59.676Z,90.90
2019-04-29T18:07:11.981Z,91.00
2019-04-29T18:13:12.373Z,90.90
2019-04-29T18:19:20.103Z,91.00
2019-04-29T18:25:36.551Z,91.10
2019-04-29T18:31:38.037Z,91.30
2019-04-29T18:37:40.473Z,91.30
2019-04-29T18:43:42.842Z,91.30
2019-04-29T18:49:47.178Z,91.40
2019-04-29T18:55:49.689Z,91.40
2019-04-29T19:01:52.108Z,91.60
2019-04-29T19:08:10.932Z,91.50
2019-04-29T19:14:00.374Z,91.50
2019-04-29T19:20:04.241Z,91.60
2019-04-29T19:26:06.505Z,91.50
2019-04-29T19:32:09.046Z,91.60
2019-04-29T19:38:13.484Z,91.30
2019-04-29T19:44:15.777Z,91.80
2019-04-29T19:50:19.663Z,91.70
2019-04-29T19:56:24.595Z,91.70
2019-04-29T20:02:27.313Z,91.50
2019-04-29T20:08:50.062Z,91.40
2019-04-29T20:14:37.174Z,91.30
2019-04-29T20:20:41.413Z,91.30
2019-04-29T20:26:46.528Z,91.30
2019-04-29T20:32:48.358Z,91.10
2019-04-29T20:38:50.781Z,91.00
2019-04-29T20:44:55.078Z,90.90
2019-04-29T20:51:10.041Z,90.90
2019-04-29T20:57:05.408Z,90.90
2019-04-29T21:03:14.616Z,91.10
2019-04-29T21:09:22.019Z,91.10
2019-04-29T21:15:27.654Z,91.40
2019-04-29T21:21:30.028Z,91.30
2019-04-29T21:27:32.429Z,91.40
2019-04-29T21:33:35.534Z,91.50
2019-04-29T21:39:39.919Z,91.40
2019-04-29T21:45:46.163Z,91.50
2019-04-29T21:51:49.778Z,91.60
2019-04-29T21:57:50.396Z,91.40
2019-04-29T22:03:52.728Z,91.60
2019-04-29T22:09:56.164Z,91.90
2019-04-29T22:15:58.729Z,91.80
2019-04-29T22:22:01.613Z,92.30
2019-04-29T22:28:05.090Z,92.30
2019-04-29T22:34:10.023Z,92.40
2019-04-29T22:40:12.929Z,92.50
2019-04-29T22:46:17.492Z,92.60
2019-04-29T22:52:20.077Z,92.60
2019-04-29T22:58:22.388Z,92.80
2019-04-29T23:04:25.020Z,92.90
2019-04-29T23:10:31.500Z,93.20
2019-04-29T23:16:35.697Z,93.30
2019-04-29T23:22:42.451Z,93.70
2019-04-29T23:28:45.844Z,93.60
2019-04-29T23:34:48.402Z,93.90
2019-04-29T23:40:56.424Z,94.10
2019-04-29T23:47:05.187Z,94.40
2019-04-29T23:53:06.996Z,94.40
2019-04-29T23:59:18.485Z,94.40
